Time;durP1;ratioP1;P1;durP2;ratioP2;P2;SDS_P1;SDS_P2;PMS_P1;PMS_P2;Temp;Humidity;BMP_temperature;BMP_pressure;BME280_temperature;BME280_humidity;BME280_pressure;Samples;Min_cycle;Max_cycle;Signal;HPM_P1;HPM_P2
2022/07/09 00:01:16;;;;;;;10.57;5.47;;;16.40;99.90;;;;;;5049242;28;20181;-53
2022/07/09 00:03:43;;;;;;;11.40;5.60;;;16.40;99.90;;;;;;5043007;28;20382;-54
2022/07/09 00:06:08;;;;;;;12.77;5.30;;;16.40;99.90;;;;;;5049662;28;20049;-50
2022/07/09 00:08:34;;;;;;;11.10;5.40;;;16.50;99.90;;;;;;5042363;28;20184;-50
2022/07/09 00:11:00;;;;;;;12.95;6.10;;;16.50;99.90;;;;;;5046663;28;20044;-52
2022/07/09 00:13:25;;;;;;;12.80;5.47;;;16.50;99.90;;;;;;5040548;28;20083;-51
2022/07/09 00:15:52;;;;;;;11.00;5.22;;;16.50;99.90;;;;;;5047921;28;20054;-54
2022/07/09 00:18:18;;;;;;;11.80;5.63;;;16.50;99.90;;;;;;5051383;28;20048;-49
2022/07/09 00:20:44;;;;;;;12.80;5.28;;;16.50;99.90;;;;;;5051065;28;20040;-49
2022/07/09 00:23:09;;;;;;;11.52;4.97;;;16.60;99.90;;;;;;5052525;28;20118;-53
2022/07/09 00:25:35;;;;;;;9.60;4.68;;;16.60;99.90;;;;;;5053553;28;20079;-51
2022/07/09 00:28:01;;;;;;;12.25;5.13;;;16.60;99.90;;;;;;5051797;28;20072;-51
2022/07/09 00:30:27;;;;;;;9.80;4.50;;;16.60;99.90;;;;;;5050523;28;20041;-53
2022/07/09 00:32:52;;;;;;;13.15;4.50;;;16.50;99.90;;;;;;5054937;28;20033;-49
2022/07/09 00:35:18;;;;;;;9.35;4.32;;;16.60;99.90;;;;;;5051838;28;20410;-50
2022/07/09 00:37:43;;;;;;;10.40;4.00;;;16.50;99.90;;;;;;5054441;28;20506;-48
2022/07/09 00:40:09;;;;;;;9.57;4.55;;;16.50;99.90;;;;;;5053281;28;20044;-53
2022/07/09 00:42:35;;;;;;;8.85;4.28;;;16.70;99.90;;;;;;5053551;28;20420;-49
2022/07/09 00:45:01;;;;;;;10.35;4.60;;;16.60;99.90;;;;;;5055683;28;20156;-52
2022/07/09 00:47:26;;;;;;;7.78;4.68;;;16.60;99.90;;;;;;5053648;28;20072;-53
2022/07/09 00:49:52;;;;;;;6.93;4.22;;;16.60;99.90;;;;;;5051215;28;20040;-54
2022/07/09 00:52:18;;;;;;;9.00;4.40;;;16.60;99.90;;;;;;5047444;28;20467;-54
2022/07/09 00:54:44;;;;;;;9.65;4.50;;;16.60;99.90;;;;;;5052201;28;20048;-54
2022/07/09 00:57:11;;;;;;;8.60;4.43;;;16.70;99.90;;;;;;5053310;28;20040;-51
2022/07/09 00:59:38;;;;;;;9.88;4.40;;;16.70;99.90;;;;;;5051602;28;20455;-53
2022/07/09 01:02:08;;;;;;;11.48;4.40;;;16.70;99.90;;;;;;5051837;28;20045;-52
2022/07/09 01:04:34;;;;;;;11.85;5.40;;;;;;;;;;5054093;28;20467;-53
2022/07/09 01:07:01;;;;;;;9.80;4.78;;;16.70;99.90;;;;;;5051748;28;20049;-53
2022/07/09 01:09:27;;;;;;;8.40;4.63;;;16.70;99.90;;;;;;5049892;28;20140;-53
2022/07/09 01:11:53;;;;;;;8.90;4.30;;;16.70;99.90;;;;;;5052850;28;20442;-52
2022/07/09 01:14:19;;;;;;;8.70;5.07;;;16.80;99.90;;;;;;5055957;28;20037;-52
2022/07/09 01:16:44;;;;;;;10.10;5.20;;;16.80;99.90;;;;;;5057982;28;21372;-52
2022/07/09 01:19:10;;;;;;;7.53;4.70;;;16.80;99.90;;;;;;5053346;28;20121;-54
2022/07/09 01:21:35;;;;;;;11.38;5.18;;;16.80;99.90;;;;;;5055268;28;20044;-51
2022/07/09 01:24:01;;;;;;;8.73;5.25;;;16.80;99.90;;;;;;5054959;28;20045;-51
2022/07/09 01:26:27;;;;;;;11.25;5.40;;;16.80;99.90;;;;;;5054756;28;20037;-53
2022/07/09 01:28:53;;;;;;;9.57;5.18;;;16.80;99.90;;;;;;5051454;28;20190;-49
2022/07/09 01:31:19;;;;;;;9.48;5.45;;;16.90;99.90;;;;;;5052076;28;20117;-53
2022/07/09 01:33:45;;;;;;;9.23;5.57;;;16.80;99.90;;;;;;5049724;28;20060;-52
2022/07/09 01:36:11;;;;;;;9.55;5.45;;;16.80;99.90;;;;;;5050354;28;20037;-51
2022/07/09 01:38:37;;;;;;;11.15;6.90;;;16.80;99.90;;;;;;5051111;28;20037;-53
2022/07/09 01:41:03;;;;;;;11.75;6.35;;;16.80;99.90;;;;;;5048846;28;20546;-50
2022/07/09 01:43:30;;;;;;;14.45;7.20;;;16.80;99.90;;;;;;5049275;28;20136;-51
2022/07/09 01:45:56;;;;;;;15.38;7.00;;;16.80;99.90;;;;;;5048718;28;20056;-50
2022/07/09 01:48:22;;;;;;;14.95;7.97;;;16.80;99.90;;;;;;5048451;28;20430;-52
2022/07/09 01:50:48;;;;;;;12.60;7.07;;;16.80;99.90;;;;;;5084464;22;20053;-50
2022/07/09 01:53:13;;;;;;;13.05;7.10;;;16.80;99.90;;;;;;5029857;28;20402;-51
2022/07/09 01:55:39;;;;;;;13.30;6.97;;;16.70;99.90;;;;;;5029943;28;20057;-48
2022/07/09 01:58:05;;;;;;;14.98;8.20;;;16.70;99.90;;;;;;5030531;28;20119;-51
2022/07/09 02:00:30;;;;;;;17.52;9.15;;;16.70;99.90;;;;;;5029104;28;20041;-51
2022/07/09 02:02:56;;;;;;;14.10;8.65;;;16.70;99.90;;;;;;5029473;28;20044;-50
2022/07/09 02:05:22;;;;;;;16.75;8.55;;;16.70;99.90;;;;;;5029355;28;20068;-52
2022/07/09 02:07:48;;;;;;;20.05;9.18;;;16.70;99.90;;;;;;5028552;28;20050;-49
2022/07/09 02:10:14;;;;;;;17.35;9.27;;;16.70;99.90;;;;;;5028677;28;20037;-49
2022/07/09 02:12:40;;;;;;;14.82;8.80;;;16.70;99.90;;;;;;5030852;28;20441;-51
2022/07/09 02:15:07;;;;;;;13.82;9.50;;;16.70;99.90;;;;;;5030732;28;20104;-50
2022/07/09 02:17:34;;;;;;;14.75;9.95;;;16.70;99.90;;;;;;5026840;28;20039;-50
2022/07/09 02:19:59;;;;;;;14.48;8.80;;;16.70;99.90;;;;;;5026652;28;20037;-52
2022/07/09 02:22:25;;;;;;;16.75;9.40;;;16.60;99.90;;;;;;5030394;28;20446;-52
2022/07/09 02:24:50;;;;;;;12.30;9.45;;;16.60;99.90;;;;;;5027875;28;20052;-50
2022/07/09 02:27:16;;;;;;;15.68;9.30;;;16.60;99.90;;;;;;5029065;28;20099;-49
2022/07/09 02:29:41;;;;;;;15.32;9.40;;;16.60;99.90;;;;;;5027174;28;20046;-51
2022/07/09 02:32:10;;;;;;;12.10;9.20;;;16.60;99.90;;;;;;5027237;28;20120;-50
2022/07/09 02:34:36;;;;;;;17.15;10.23;;;16.60;99.90;;;;;;5028270;28;20053;-50
2022/07/09 02:37:03;;;;;;;16.08;9.60;;;16.60;99.90;;;;;;5028638;28;20049;-50
2022/07/09 02:39:28;;;;;;;12.63;9.05;;;16.50;99.90;;;;;;5027187;28;20052;-49
2022/07/09 02:41:54;;;;;;;15.77;9.75;;;16.60;99.90;;;;;;5030118;28;20461;-47
2022/07/09 02:44:19;;;;;;;14.93;9.77;;;16.60;99.90;;;;;;5029116;28;20101;-49
2022/07/09 02:46:45;;;;;;;13.70;10.40;;;16.50;99.90;;;;;;5027866;28;20107;-50
2022/07/09 02:49:11;;;;;;;16.25;10.52;;;16.60;99.90;;;;;;5025103;28;20515;-49
2022/07/09 02:51:37;;;;;;;14.40;9.68;;;16.50;99.90;;;;;;5028792;28;20523;-48
2022/07/09 02:54:03;;;;;;;16.23;10.48;;;16.50;99.90;;;;;;5026307;28;20143;-52
2022/07/09 02:56:28;;;;;;;14.00;10.38;;;16.50;99.90;;;;;;5024372;28;20136;-51
2022/07/09 02:58:54;;;;;;;16.88;10.32;;;16.50;99.90;;;;;;5024624;28;20495;-49
2022/07/09 03:01:19;;;;;;;16.15;10.27;;;16.50;99.90;;;;;;5022718;28;20447;-53
2022/07/09 03:03:46;;;;;;;16.08;11.05;;;16.40;99.90;;;;;;5024707;28;20044;-52
2022/07/09 03:06:12;;;;;;;13.52;10.23;;;16.40;99.90;;;;;;5025450;28;20487;-51
2022/07/09 03:08:38;;;;;;;14.57;9.95;;;16.40;99.90;;;;;;5026896;28;20049;-49
2022/07/09 03:11:06;;;;;;;14.10;9.65;;;16.40;99.90;;;;;;5024492;28;20087;-52
2022/07/09 03:13:35;;;;;;;13.57;10.23;;;16.30;99.90;;;;;;5020393;28;20045;-49
2022/07/09 03:16:02;;;;;;;11.10;9.02;;;16.30;99.90;;;;;;5028401;28;20102;-52
2022/07/09 03:18:29;;;;;;;14.80;9.50;;;16.30;99.90;;;;;;5029622;28;20053;-52
2022/07/09 03:20:55;;;;;;;13.45;9.63;;;16.30;99.90;;;;;;5024258;28;20037;-48
2022/07/09 03:23:21;;;;;;;15.00;10.60;;;16.20;99.90;;;;;;5024124;28;20152;-50
2022/07/09 03:25:46;;;;;;;11.70;9.88;;;16.30;99.90;;;;;;5024019;28;20172;-51
2022/07/09 03:28:12;;;;;;;15.23;9.77;;;16.30;99.90;;;;;;5023454;28;20048;-50
2022/07/09 03:30:37;;;;;;;13.98;9.07;;;16.20;99.90;;;;;;5025875;28;20048;-51
2022/07/09 03:33:03;;;;;;;13.15;8.77;;;16.20;99.90;;;;;;5029167;28;20037;-50
2022/07/09 03:35:29;;;;;;;12.75;9.10;;;16.20;99.90;;;;;;5025252;28;20476;-52
2022/07/09 03:37:54;;;;;;;13.52;8.52;;;16.30;99.90;;;;;;5025288;28;20395;-50
2022/07/09 03:40:20;;;;;;;13.40;8.90;;;16.20;99.90;;;;;;5029128;28;20049;-51
2022/07/09 03:42:46;;;;;;;12.73;8.30;;;16.30;99.90;;;;;;5028510;28;20053;-49
2022/07/09 03:45:12;;;;;;;12.70;8.05;;;16.30;99.90;;;;;;5023639;28;20116;-51
2022/07/09 03:47:37;;;;;;;12.93;8.73;;;16.30;99.90;;;;;;5026737;28;20040;-50
2022/07/09 03:50:04;;;;;;;14.57;8.57;;;16.40;99.90;;;;;;5023919;28;20094;-48
2022/07/09 03:52:30;;;;;;;12.50;8.18;;;16.20;99.90;;;;;;5023519;28;20072;-52
2022/07/09 03:54:55;;;;;;;11.75;8.55;;;16.30;99.90;;;;;;5026405;28;20045;-47
2022/07/09 03:57:21;;;;;;;9.93;8.00;;;16.30;99.90;;;;;;5026642;28;20034;-47
2022/07/09 03:59:46;;;;;;;11.27;8.10;;;16.30;99.90;;;;;;5024733;28;20520;-51
2022/07/09 04:02:12;;;;;;;9.73;7.65;;;16.30;99.90;;;;;;5026845;28;20033;-48
2022/07/09 04:04:37;;;;;;;11.88;7.53;;;16.30;99.90;;;;;;5025524;28;20155;-49
2022/07/09 04:07:03;;;;;;;9.98;8.30;;;16.30;99.90;;;;;;5028834;28;20048;-48
2022/07/09 04:09:30;;;;;;;12.50;8.57;;;16.30;99.90;;;;;;5022173;28;20513;-49
2022/07/09 04:11:56;;;;;;;10.45;8.25;;;16.40;99.90;;;;;;5027111;28;20110;-51
2022/07/09 04:14:21;;;;;;;11.95;8.13;;;16.40;99.90;;;;;;5020450;28;20037;-51
2022/07/09 04:16:47;;;;;;;10.93;8.43;;;16.40;99.90;;;;;;5027124;28;20049;-51
2022/07/09 04:19:13;;;;;;;9.35;7.70;;;16.40;99.90;;;;;;5026160;28;20195;-52
2022/07/09 04:21:38;;;;;;;8.90;7.90;;;16.60;99.90;;;;;;5023398;28;20068;-51
2022/07/09 04:24:04;;;;;;;14.30;8.55;;;17.00;99.90;;;;;;5021657;28;20189;-49
2022/07/09 04:26:30;;;;;;;11.18;8.13;;;16.40;99.90;;;;;;5021244;28;20042;-51
2022/07/09 04:28:55;;;;;;;11.45;8.25;;;16.50;99.90;;;;;;5025522;28;20645;-52
2022/07/09 04:31:21;;;;;;;10.88;7.93;;;16.50;99.90;;;;;;5025310;28;20376;-52
2022/07/09 04:33:47;;;;;;;10.27;8.00;;;16.60;99.90;;;;;;5025406;28;20115;-53
2022/07/09 04:36:13;;;;;;;9.98;7.65;;;16.70;99.90;;;;;;5023122;28;20033;-49
2022/07/09 04:38:38;;;;;;;8.80;7.30;;;16.70;99.90;;;;;;5020873;28;20199;-52
2022/07/09 04:41:05;;;;;;;8.35;7.45;;;16.80;99.90;;;;;;5021003;28;20056;-49
2022/07/09 04:43:31;;;;;;;12.35;8.35;;;16.90;99.90;;;;;;5018633;28;20485;-52
2022/07/09 04:45:56;;;;;;;9.85;7.68;;;16.90;99.90;;;;;;5021533;28;20043;-52
2022/07/09 04:48:22;;;;;;;8.63;7.32;;;17.00;99.90;;;;;;5025301;28;20120;-51
2022/07/09 04:50:48;;;;;;;10.93;7.22;;;17.10;99.90;;;;;;5021694;28;20061;-49
2022/07/09 04:53:14;;;;;;;9.13;7.32;;;17.10;99.90;;;;;;5027603;28;20152;-49
2022/07/09 04:55:39;;;;;;;10.68;7.63;;;17.20;99.90;;;;;;5027106;28;20132;-50
2022/07/09 04:58:05;;;;;;;10.43;7.40;;;17.20;99.90;;;;;;5022775;28;20060;-51
2022/07/09 05:00:32;;;;;;;7.75;6.93;;;17.20;99.90;;;;;;5023222;28;20510;-51
2022/07/09 05:02:58;;;;;;;8.65;7.40;;;17.20;99.90;;;;;;5021698;28;20360;-50
2022/07/09 05:05:25;;;;;;;11.20;7.40;;;17.20;99.90;;;;;;5028383;28;20047;-52
2022/07/09 05:07:51;;;;;;;9.02;7.82;;;17.20;99.90;;;;;;5028449;28;20121;-54
2022/07/09 05:10:17;;;;;;;9.40;8.05;;;17.20;99.90;;;;;;5029669;28;20088;-49
2022/07/09 05:12:42;;;;;;;9.20;7.93;;;17.20;99.90;;;;;;5033422;28;20045;-48
2022/07/09 05:15:09;;;;;;;9.05;7.95;;;17.30;99.90;;;;;;5032546;28;20502;-50
2022/07/09 05:17:36;;;;;;;9.30;7.65;;;17.50;99.90;;;;;;5025967;28;20379;-48
2022/07/09 05:20:06;;;;;;;9.55;7.07;;;17.90;99.90;;;;;;5028356;28;20046;-52
2022/07/09 05:22:32;;;;;;;8.40;7.15;;;18.10;99.90;;;;;;5035988;28;20419;-49
2022/07/09 05:24:58;;;;;;;11.25;7.57;;;18.40;99.90;;;;;;5027846;28;20080;-52
2022/07/09 05:27:24;;;;;;;8.77;7.00;;;18.60;99.90;;;;;;5024011;28;20065;-50
2022/07/09 05:29:50;;;;;;;8.75;6.63;;;19.10;99.90;;;;;;5030860;28;20115;-49
2022/07/09 05:32:16;;;;;;;9.77;6.80;;;19.20;99.90;;;;;;5027178;28;20045;-51
2022/07/09 05:34:41;;;;;;;8.10;6.38;;;19.10;99.90;;;;;;5023989;28;20047;-50
2022/07/09 05:37:07;;;;;;;8.30;6.22;;;19.00;99.90;;;;;;5026363;28;20475;-51
2022/07/09 05:39:33;;;;;;;9.30;6.22;;;18.90;99.90;;;;;;5027082;28;20040;-50
2022/07/09 05:41:58;;;;;;;8.85;6.10;;;18.80;99.90;;;;;;5025090;28;20046;-50
2022/07/09 05:44:24;;;;;;;8.77;6.22;;;18.70;99.90;;;;;;5028553;28;20052;-50
2022/07/09 05:46:49;;;;;;;9.95;6.38;;;18.70;99.90;;;;;;5036593;28;20034;-51
2022/07/09 05:49:15;;;;;;;8.75;6.65;;;18.70;99.90;;;;;;5024447;28;20124;-49
2022/07/09 05:51:41;;;;;;;7.95;6.18;;;18.60;99.90;;;;;;5021770;28;20547;-51
2022/07/09 05:54:06;;;;;;;9.18;6.25;;;18.60;99.90;;;;;;5032112;28;20042;-50
2022/07/09 05:56:32;;;;;;;10.95;6.25;;;18.50;99.90;;;;;;5023271;28;20051;-50
2022/07/09 05:58:58;;;;;;;7.75;5.78;;;18.50;99.90;;;;;;5022770;28;20042;-50
2022/07/09 06:01:23;;;;;;;9.32;6.00;;;18.60;99.90;;;;;;5023831;28;20468;-49
2022/07/09 06:03:49;;;;;;;7.03;6.05;;;18.60;99.90;;;;;;5020195;28;20371;-51
2022/07/09 06:06:14;;;;;;;6.93;6.20;;;18.70;99.90;;;;;;5028343;28;20037;-52
2022/07/09 06:08:40;;;;;;;9.75;5.95;;;18.60;99.90;;;;;;5029921;28;20046;-50
2022/07/09 06:11:06;;;;;;;7.90;5.50;;;18.70;99.90;;;;;;5029083;28;20037;-52
2022/07/09 06:13:31;;;;;;;7.80;5.72;;;18.80;99.90;;;;;;5019097;28;20507;-51
2022/07/09 06:15:57;;;;;;;7.05;5.18;;;19.10;99.90;;;;;;5027385;28;20495;-53
2022/07/09 06:18:23;;;;;;;5.72;4.93;;;19.60;99.90;;;;;;5032245;28;20439;-51
2022/07/09 06:20:48;;;;;;;8.63;4.95;;;20.30;99.90;;;;;;5021237;28;20072;-51
2022/07/09 06:23:14;;;;;;;6.20;4.13;;;20.70;99.90;;;;;;5023909;28;20073;-50
2022/07/09 06:25:40;;;;;;;9.50;5.45;;;21.40;99.90;;;;;;5031124;28;20042;-53
2022/07/09 06:28:06;;;;;;;7.55;4.18;;;21.60;99.90;;;;;;5024954;28;20041;-51
2022/07/09 06:30:35;;;;;;;8.75;4.28;;;21.60;99.90;;;;;;5029528;28;20132;-52
2022/07/09 06:33:01;;;;;;;7.60;3.90;;;21.90;99.90;;;;;;5028884;28;20526;-51
2022/07/09 06:35:27;;;;;;;4.88;3.60;;;22.00;99.90;;;;;;5031059;28;20029;-52
2022/07/09 06:37:52;;;;;;;5.85;3.92;;;21.90;99.90;;;;;;5032346;28;20091;-51
2022/07/09 06:40:18;;;;;;;5.78;3.17;;;21.70;99.90;;;;;;5029847;28;20065;-51
2022/07/09 06:42:43;;;;;;;4.63;3.20;;;21.50;99.90;;;;;;5012242;28;20103;-49
2022/07/09 06:45:09;;;;;;;10.88;4.28;;;21.30;99.90;;;;;;5016120;28;20124;-52
2022/07/09 06:47:36;;;;;;;6.32;3.28;;;21.20;99.90;;;;;;5022183;28;20095;-50
2022/07/09 06:50:01;;;;;;;4.63;3.47;;;21.00;99.90;;;;;;5022645;28;20053;-50
2022/07/09 06:52:27;;;;;;;5.65;3.40;;;20.80;99.90;;;;;;5028636;28;20054;-50
2022/07/09 06:54:53;;;;;;;7.32;3.85;;;20.70;99.90;;;;;;5027414;28;20112;-49
2022/07/09 06:57:19;;;;;;;5.28;3.50;;;20.50;99.90;;;;;;5028597;28;20064;-52
2022/07/09 06:59:45;;;;;;;5.03;3.70;;;20.30;99.90;;;;;;5030866;28;20042;-49
2022/07/09 07:02:12;;;;;;;4.60;3.40;;;20.20;99.90;;;;;;5029752;28;20038;-48
2022/07/09 07:04:37;;;;;;;5.43;3.30;;;20.00;99.90;;;;;;5032493;28;20120;-49
2022/07/09 07:07:04;;;;;;;5.97;3.60;;;20.00;99.90;;;;;;5031213;28;20135;-51
2022/07/09 07:09:30;;;;;;;5.28;3.67;;;20.00;99.90;;;;;;5032283;28;20049;-48
2022/07/09 07:11:55;;;;;;;5.40;3.50;;;20.00;99.90;;;;;;5029078;28;20060;-52
2022/07/09 07:14:21;;;;;;;4.75;3.67;;;20.00;99.90;;;;;;5029861;28;20048;-52
2022/07/09 07:16:47;;;;;;;7.57;4.15;;;20.00;99.90;;;;;;5029721;28;20064;-51
2022/07/09 07:19:12;;;;;;;5.43;3.58;;;20.10;99.90;;;;;;5024689;28;20112;-49
2022/07/09 07:21:38;;;;;;;6.32;3.75;;;20.20;99.90;;;;;;5031756;28;20053;-52
2022/07/09 07:24:05;;;;;;;4.22;3.83;;;20.10;99.90;;;;;;5026058;28;20048;-53
2022/07/09 07:26:31;;;;;;;6.43;3.90;;;20.10;99.90;;;;;;5030998;28;20073;-53
2022/07/09 07:28:57;;;;;;;6.88;3.70;;;20.30;99.90;;;;;;5026345;28;20075;-49
2022/07/09 07:31:24;;;;;;;6.13;3.53;;;20.50;99.90;;;;;;5029928;28;20045;-52
2022/07/09 07:33:50;;;;;;;4.70;3.30;;;20.70;99.90;;;;;;5027703;28;20132;-52
2022/07/09 07:36:16;;;;;;;5.50;3.65;;;20.80;99.90;;;;;;5029255;28;20132;-53
2022/07/09 07:38:41;;;;;;;6.68;3.45;;;21.00;99.90;;;;;;5024467;28;20037;-53
2022/07/09 07:41:07;;;;;;;4.03;3.22;;;21.20;99.90;;;;;;5030827;28;20049;-49
2022/07/09 07:43:32;;;;;;;6.05;3.30;;;21.10;99.90;;;;;;5030120;28;20048;-51
2022/07/09 07:45:58;;;;;;;4.70;3.38;;;21.10;99.90;;;;;;5030415;28;20045;-48
2022/07/09 07:48:24;;;;;;;6.45;3.17;;;21.10;99.90;;;;;;5030079;28;20041;-51
2022/07/09 07:50:50;;;;;;;5.13;3.63;;;21.00;99.90;;;;;;5025237;28;20360;-49
2022/07/09 07:53:15;;;;;;;10.77;4.00;;;20.90;99.90;;;;;;5021938;28;20045;-50
2022/07/09 07:55:41;;;;;;;7.20;3.67;;;20.70;99.90;;;;;;5024823;28;20041;-50
2022/07/09 07:58:07;;;;;;;4.13;3.33;;;20.80;99.90;;;;;;5023132;28;20037;-50
2022/07/09 08:00:32;;;;;;;4.60;3.38;;;20.80;99.90;;;;;;5020902;28;20045;-52
2022/07/09 08:02:58;;;;;;;5.85;3.28;;;20.60;99.90;;;;;;5024858;28;20446;-53
2022/07/09 08:05:25;;;;;;;4.88;3.25;;;20.60;99.90;;;;;;5020622;28;20487;-50
2022/07/09 08:07:50;;;;;;;5.43;3.63;;;20.60;99.90;;;;;;5024793;28;20156;-50
2022/07/09 08:10:16;;;;;;;3.40;3.10;;;20.50;99.90;;;;;;5028294;28;20538;-52
2022/07/09 08:12:41;;;;;;;4.80;4.30;;;20.50;99.90;;;;;;5027389;28;20103;-51
2022/07/09 08:15:07;;;;;;;8.15;4.55;;;20.50;99.90;;;;;;5027347;28;20653;-52
2022/07/09 08:17:33;;;;;;;4.15;3.20;;;20.50;99.90;;;;;;5024104;28;20052;-53
2022/07/09 08:19:58;;;;;;;7.50;4.18;;;20.40;99.90;;;;;;5019123;28;20561;-53
2022/07/09 08:22:24;;;;;;;4.75;3.42;;;20.40;99.90;;;;;;5028024;28;20480;-48
2022/07/09 08:24:49;;;;;;;5.35;2.92;;;20.50;99.90;;;;;;5027345;28;20044;-52
2022/07/09 08:27:15;;;;;;;5.60;2.97;;;20.50;99.90;;;;;;5024421;28;20043;-53
2022/07/09 08:29:40;;;;;;;4.22;2.70;;;20.70;99.90;;;;;;5036470;28;20129;-51
2022/07/09 08:32:06;;;;;;;3.83;2.38;;;20.90;99.90;;;;;;5023778;28;20406;-55
2022/07/09 08:34:32;;;;;;;5.03;1.85;;;21.00;99.90;;;;;;5022246;28;20083;-51
2022/07/09 08:36:57;;;;;;;4.43;2.10;;;20.90;99.90;;;;;;5023374;28;20542;-53
2022/07/09 08:39:23;;;;;;;3.95;1.70;;;21.00;99.90;;;;;;5028573;28;20037;-54
2022/07/09 08:41:50;;;;;;;3.05;2.05;;;20.80;99.90;;;;;;5029336;28;20106;-54
2022/07/09 08:44:19;;;;;;;4.53;1.80;;;20.80;99.90;;;;;;5028811;28;20041;-49
2022/07/09 08:46:45;;;;;;;5.35;1.90;;;20.80;99.90;;;;;;5025447;28;20041;-56
2022/07/09 08:49:12;;;;;;;3.22;1.70;;;21.10;99.90;;;;;;5025720;28;20505;-56
2022/07/09 08:51:37;;;;;;;3.40;2.00;;;21.30;99.90;;;;;;5026989;28;20478;-53
2022/07/09 08:54:03;;;;;;;5.15;2.80;;;21.50;99.90;;;;;;5024542;28;20038;-55
2022/07/09 08:56:29;;;;;;;3.75;2.10;;;21.40;99.90;;;;;;5029772;28;20033;-54
2022/07/09 08:58:54;;;;;;;4.53;1.90;;;21.70;99.90;;;;;;5031102;28;20044;-57
2022/07/09 09:01:20;;;;;;;3.53;1.50;;;22.10;99.90;;;;;;5031245;28;20072;-56
2022/07/09 09:03:46;;;;;;;2.28;1.50;;;22.10;99.90;;;;;;5025178;28;20041;-57
2022/07/09 09:06:13;;;;;;;3.20;1.92;;;22.20;99.90;;;;;;5028528;28;20132;-57
2022/07/09 09:08:44;;;;;;;3.63;1.90;;;21.80;99.90;;;;;;5028389;28;20053;-57
2022/07/09 09:11:15;;;;;;;2.40;1.70;;;21.70;99.90;;;;;;5026774;28;20103;-58
2022/07/09 09:13:43;;;;;;;3.90;1.80;;;21.50;99.90;;;;;;5025527;28;20064;-57
2022/07/09 09:16:09;;;;;;;;;;;21.60;99.90;;;;;;5029495;28;20488;-57
2022/07/09 09:18:47;;;;;;;4.03;2.05;;;21.40;99.90;;;;;;5026335;28;20267;-57
2022/07/09 09:21:14;;;;;;;3.50;2.03;;;21.50;99.90;;;;;;5026628;28;21059;-57
2022/07/09 09:23:44;;;;;;;6.85;1.88;;;21.60;99.90;;;;;;5031591;28;20507;-57
2022/07/09 09:26:11;;;;;;;5.10;1.60;;;21.90;99.90;;;;;;5032342;28;20124;-57
2022/07/09 09:28:56;;;;;;;5.22;1.45;;;22.20;99.90;;;;;;5033394;28;20398;-58
2022/07/09 09:31:27;;;;;;;3.47;1.40;;;22.20;99.90;;;;;;5028584;28;20037;-57
2022/07/09 09:33:57;;;;;;;2.30;1.55;;;22.40;99.90;;;;;;5032012;28;20443;-56
2022/07/09 09:36:54;;;;;;;4.57;1.40;;;22.40;99.90;;;;;;5038761;28;20511;-56
2022/07/09 09:39:25;;;;;;;3.35;1.20;;;22.70;99.90;;;;;;5039057;28;20515;-55
2022/07/09 09:41:53;;;;;;;2.03;1.55;;;22.90;99.90;;;;;;5038803;28;20038;-56
2022/07/09 09:44:23;;;;;;;1.42;1.00;;;23.10;99.90;;;;;;5037988;28;20522;-56
2022/07/09 09:46:49;;;;;;;1.63;1.02;;;23.10;99.90;;;;;;5038882;28;20056;-56
2022/07/09 09:49:15;;;;;;;2.03;1.00;;;23.20;99.90;;;;;;5037303;28;20037;-56
2022/07/09 09:52:10;;;;;;;1.17;1.00;;;23.40;99.90;;;;;;5037284;28;20058;-56
2022/07/09 09:54:38;;;;;;;2.35;1.25;;;23.90;99.90;;;;;;5029304;28;20060;-56
2022/07/09 09:57:09;;;;;;;1.70;1.15;;;24.00;99.90;;;;;;5037114;28;20044;-57
2022/07/09 09:59:40;;;;;;;1.55;1.15;;;24.00;99.90;;;;;;5023863;28;20037;-56
2022/07/09 10:02:09;;;;;;;2.22;0.90;;;24.00;99.90;;;;;;5039296;28;20057;-56
2022/07/09 10:04:43;;;;;;;1.17;0.98;;;23.90;99.90;;;;;;5033616;28;20037;-57
2022/07/09 10:07:12;;;;;;;2.45;1.00;;;23.90;99.90;;;;;;5033288;28;20045;-57
2022/07/09 10:09:38;;;;;;;1.17;0.80;;;23.80;99.90;;;;;;5029048;28;20041;-56
2022/07/09 10:12:05;;;;;;;1.00;0.90;;;24.20;99.90;;;;;;5027875;28;20049;-58
2022/07/09 10:14:36;;;;;;;1.10;1.00;;;24.50;99.90;;;;;;5025571;28;20037;-57
2022/07/09 10:17:15;;;;;;;0.93;0.80;;;24.60;99.90;;;;;;5026881;28;20042;-57
2022/07/09 10:19:58;;;;;;;1.90;0.90;;;24.20;99.90;;;;;;5027118;28;20526;-57
2022/07/09 10:22:41;;;;;;;1.48;1.08;;;24.20;99.90;;;;;;5022497;28;20050;-57
2022/07/09 10:25:08;;;;;;;2.05;0.80;;;24.20;99.90;;;;;;5030516;28;20042;-57
2022/07/09 10:27:48;;;;;;;0.98;0.80;;;24.40;99.90;;;;;;5028037;28;20080;-59
2022/07/09 10:30:31;;;;;;;6.65;1.00;;;24.30;99.90;;;;;;5021740;28;20038;-58
2022/07/09 10:33:23;;;;;;;1.23;0.90;;;24.10;99.90;;;;;;5026400;28;20513;-57
2022/07/09 10:35:54;;;;;;;1.20;1.00;;;24.40;99.90;;;;;;5026043;28;20454;-57
2022/07/09 10:38:24;;;;;;;4.13;1.00;;;24.20;99.90;;;;;;5028282;28;20049;-59
2022/07/09 10:41:00;;;;;;;1.55;0.88;;;24.20;99.90;;;;;;5029220;28;20404;-58
2022/07/09 10:43:44;;;;;;;1.77;0.73;;;24.50;99.90;;;;;;5024576;28;20045;-58
2022/07/09 10:46:14;;;;;;;1.10;0.70;;;24.30;99.90;;;;;;5023234;28;20503;-57
2022/07/09 10:48:41;;;;;;;1.65;0.73;;;24.40;99.90;;;;;;5026024;28;20046;-59
2022/07/09 10:51:06;;;;;;;2.23;0.90;;;24.50;99.90;;;;;;5023105;28;20053;-59
2022/07/09 10:53:32;;;;;;;4.15;0.85;;;24.40;99.90;;;;;;5028124;28;20042;-59
2022/07/09 10:55:59;;;;;;;2.30;0.80;;;24.80;99.90;;;;;;5044251;28;20049;-57
2022/07/09 10:58:25;;;;;;;3.00;1.33;;;24.70;99.90;;;;;;5032701;28;20502;-58
2022/07/09 11:01:02;;;;;;;1.70;0.90;;;24.50;99.90;;;;;;5031124;28;20307;-56
2022/07/09 11:03:29;;;;;;;;;;;24.10;99.90;;;;;;5035571;28;20059;-57
2022/07/09 11:05:56;;;;;;;2.72;1.10;;;23.90;99.90;;;;;;5033408;28;20047;-57
2022/07/09 11:08:22;;;;;;;3.37;1.00;;;23.60;99.90;;;;;;5031844;28;20139;-58
2022/07/09 11:10:47;;;;;;;2.90;1.10;;;23.80;99.90;;;;;;5032678;28;20041;-56
2022/07/09 11:13:13;;;;;;;4.25;1.23;;;23.80;99.90;;;;;;5034166;28;20037;-57
2022/07/09 11:15:39;;;;;;;2.55;1.05;;;23.80;99.90;;;;;;5032906;28;20128;-57
2022/07/09 11:18:10;;;;;;;4.35;1.20;;;23.50;99.90;;;;;;5030891;28;20034;-58
2022/07/09 11:20:46;;;;;;;5.20;1.27;;;23.10;99.90;;;;;;5028361;28;20042;-57
2022/07/09 11:23:13;;;;;;;3.95;0.82;;;23.80;99.90;;;;;;5021492;28;20133;-58
2022/07/09 11:25:40;;;;;;;3.72;1.10;;;24.00;99.90;;;;;;5030744;28;20041;-57
2022/07/09 11:28:06;;;;;;;2.95;1.13;;;24.10;99.90;;;;;;5027518;28;20046;-57
2022/07/09 11:30:36;;;;;;;3.25;1.25;;;24.30;99.90;;;;;;5029223;28;20395;-59
2022/07/09 11:33:02;;;;;;;2.05;1.10;;;24.50;99.90;;;;;;5023852;28;20045;-60
2022/07/09 11:35:29;;;;;;;9.70;1.45;;;24.40;99.90;;;;;;5025246;28;21960;-57
2022/07/09 11:37:59;;;;;;;5.95;1.38;;;24.30;99.90;;;;;;5023873;28;20616;-57
2022/07/09 11:40:25;;;;;;;3.22;0.90;;;24.60;99.90;;;;;;5022405;28;20037;-57
2022/07/09 11:42:51;;;;;;;4.47;0.90;;;24.50;99.90;;;;;;5021092;28;20075;-56
2022/07/09 11:45:24;;;;;;;3.90;1.00;;;24.70;99.90;;;;;;5024678;28;20041;-58
2022/07/09 11:48:02;;;;;;;3.28;0.93;;;24.50;99.90;;;;;;5021536;28;20045;-57
2022/07/09 11:50:27;;;;;;;4.00;1.08;;;24.60;99.90;;;;;;5023142;28;20072;-57
2022/07/09 11:52:53;;;;;;;3.83;1.20;;;25.20;99.90;;;;;;5026856;28;20041;-55
2022/07/09 11:55:21;;;;;;;3.17;1.10;;;25.00;99.90;;;;;;5025613;28;20400;-60
2022/07/09 11:57:56;;;;;;;5.22;1.00;;;24.60;99.90;;;;;;5026271;28;20048;-59
2022/07/09 12:00:33;;;;;;;3.33;1.05;;;24.70;99.90;;;;;;5020242;28;20046;-57
2022/07/09 12:03:03;;;;;;;2.70;0.90;;;24.40;99.90;;;;;;5023303;28;20037;-56
2022/07/09 12:05:31;;;;;;;4.22;1.00;;;24.10;99.90;;;;;;5025622;28;20222;-59
2022/07/09 12:07:58;;;;;;;3.15;1.10;;;23.90;99.90;;;;;;5023195;28;20041;-57
2022/07/09 12:10:40;;;;;;;2.60;1.20;;;23.40;99.90;;;;;;5025633;28;20049;-57
2022/07/09 12:13:06;;;;;;;3.40;1.20;;;23.00;99.90;;;;;;5026869;28;20037;-57
2022/07/09 12:15:32;;;;;;;3.80;1.27;;;23.00;99.90;;;;;;5020993;28;20156;-57
2022/07/09 12:18:00;;;;;;;1.70;0.80;;;22.60;99.90;;;;;;5019880;28;20496;-57
2022/07/09 12:20:28;;;;;;;3.08;1.38;;;22.20;99.90;;;;;;5024243;28;20422;-57
2022/07/09 12:22:54;;;;;;;2.88;1.23;;;22.10;99.90;;;;;;5037888;28;20179;-57
2022/07/09 12:25:21;;;;;;;4.95;1.20;;;22.30;99.90;;;;;;5023064;28;21068;-58
2022/07/09 12:27:47;;;;;;;4.25;1.20;;;22.50;99.90;;;;;;5022089;28;20037;-57
2022/07/09 12:30:13;;;;;;;3.30;1.10;;;22.80;99.90;;;;;;5023493;28;20213;-57
2022/07/09 12:32:39;;;;;;;4.55;1.27;;;22.90;99.90;;;;;;5022817;28;20529;-57
2022/07/09 12:35:06;;;;;;;4.82;1.13;;;22.90;99.90;;;;;;5027056;28;20135;-60
2022/07/09 12:37:31;;;;;;;5.72;1.60;;;22.80;99.90;;;;;;5027559;28;20496;-57
2022/07/09 12:39:57;;;;;;;6.78;1.55;;;22.40;99.90;;;;;;5027424;28;20033;-56
2022/07/09 12:42:23;;;;;;;5.68;1.30;;;22.40;99.90;;;;;;5023839;28;20446;-57